Time;durP1;ratioP1;P1;durP2;ratioP2;P2;SDS_P1;SDS_P2;PMS_P1;PMS_P2;Temp;Humidity;BMP_temperature;BMP_pressure;BME280_temperature;BME280_humidity;BME280_pressure;Samples;Min_cycle;Max_cycle;Signal;HPM_P1;HPM_P2
2021/09/12 00:00:26;;;;;;;17.38;7.97;;;20.90;88.50;;;;;;5052005;28;20090;-83
2021/09/12 00:02:52;;;;;;;23.52;14.70;;;20.90;88.10;;;;;;5040673;28;20022;-83
2021/09/12 00:05:18;;;;;;;25.27;13.98;;;20.90;88.50;;;;;;5034396;28;20029;-83
2021/09/12 00:07:43;;;;;;;27.40;15.30;;;20.90;88.60;;;;;;5037459;28;20061;-82
2021/09/12 00:10:09;;;;;;;26.23;12.18;;;20.90;88.80;;;;;;5037439;28;20040;-82
2021/09/12 00:12:37;;;;;;;27.67;15.45;;;20.90;88.60;;;;;;5045168;28;20036;-84
2021/09/12 00:15:05;;;;;;;24.80;12.85;;;20.90;88.80;;;;;;5038563;28;20044;-82
2021/09/12 00:17:30;;;;;;;27.90;15.50;;;20.90;88.70;;;;;;5034846;28;20036;-83
2021/09/12 00:19:56;;;;;;;30.33;14.80;;;20.90;88.80;;;;;;5041043;28;20028;-83
2021/09/12 00:22:22;;;;;;;30.38;14.05;;;20.90;88.80;;;;;;5035563;28;20028;-83
2021/09/12 00:24:47;;;;;;;26.67;14.43;;;20.90;88.80;;;;;;5036373;28;20029;-82
2021/09/12 00:27:13;;;;;;;24.45;13.63;;;20.90;88.80;;;;;;5035177;28;20462;-83
2021/09/12 00:29:39;;;;;;;25.90;14.63;;;20.90;88.80;;;;;;5041838;28;20029;-82
2021/09/12 00:32:05;;;;;;;20.75;11.18;;;20.90;88.80;;;;;;5045369;28;20051;-83
2021/09/12 00:34:30;;;;;;;22.40;10.32;;;20.90;88.60;;;;;;5042589;28;20033;-83
2021/09/12 00:36:56;;;;;;;21.98;10.63;;;20.80;88.50;;;;;;5037949;28;20029;-83
2021/09/12 00:39:21;;;;;;;22.23;12.80;;;20.90;88.60;;;;;;5034718;28;20040;-82
2021/09/12 00:41:47;;;;;;;23.42;13.23;;;20.80;88.80;;;;;;5044812;28;20025;-82
2021/09/12 00:44:13;;;;;;;21.48;11.82;;;20.80;88.80;;;;;;5037272;28;20041;-83
2021/09/12 00:46:40;;;;;;;20.08;12.13;;;20.80;88.70;;;;;;5041813;28;20080;-83
2021/09/12 00:49:06;;;;;;;17.48;9.07;;;20.80;88.70;;;;;;5034168;28;20098;-83
2021/09/12 00:51:32;;;;;;;21.10;10.63;;;20.80;88.50;;;;;;5043536;28;20029;-82
2021/09/12 00:53:58;;;;;;;19.48;12.02;;;20.80;88.50;;;;;;5033838;28;20045;-82
2021/09/12 00:56:28;;;;;;;22.10;10.82;;;20.80;88.60;;;;;;5050776;28;20423;-83
2021/09/12 00:58:59;;;;;;;22.23;10.82;;;20.80;88.60;;;;;;5052473;28;20033;-83
2021/09/12 01:01:25;;;;;;;18.83;11.43;;;20.80;88.60;;;;;;5033610;28;20021;-83
2021/09/12 01:03:54;;;;;;;21.83;11.98;;;20.80;88.50;;;;;;5037204;28;20061;-83
2021/09/12 01:06:21;;;;;;;16.38;7.72;;;20.80;88.60;;;;;;5033638;28;20032;-83
2021/09/12 01:08:46;;;;;;;22.10;10.88;;;20.70;88.30;;;;;;5033308;28;20472;-83
2021/09/12 01:11:13;;;;;;;26.65;13.13;;;20.70;88.50;;;;;;5048081;28;20029;-83
2021/09/12 01:13:40;;;;;;;31.95;13.50;;;20.70;88.60;;;;;;5036766;28;20472;-81
2021/09/12 01:16:17;;;;;;;32.33;13.27;;;20.80;88.80;;;;;;5042509;28;20112;-81
2021/09/12 01:18:44;;;;;;;20.30;12.20;;;20.70;88.90;;;;;;5035211;28;20044;-84
2021/09/12 01:21:12;;;;;;;32.47;14.45;;;20.70;88.60;;;;;;5037022;28;20373;-83
2021/09/12 01:23:38;;;;;;;20.88;11.65;;;20.70;88.60;;;;;;5042983;28;20471;-83
2021/09/12 01:26:03;;;;;;;24.15;13.73;;;20.70;88.40;;;;;;5042440;28;20056;-82
2021/09/12 01:28:29;;;;;;;29.75;14.90;;;20.70;88.60;;;;;;5050483;28;20083;-83
2021/09/12 01:30:55;;;;;;;31.00;15.20;;;20.70;88.80;;;;;;5042805;28;20029;-83
2021/09/12 01:33:21;;;;;;;30.42;15.18;;;20.70;88.90;;;;;;5040867;28;20040;-83
2021/09/12 01:35:49;;;;;;;30.65;16.80;;;20.70;88.80;;;;;;5039464;28;20048;-83
2021/09/12 01:38:15;;;;;;;29.75;14.25;;;20.70;88.80;;;;;;5037293;28;20474;-82
2021/09/12 01:40:40;;;;;;;26.55;12.73;;;20.70;88.70;;;;;;5045408;28;20021;-84
2021/09/12 01:43:06;;;;;;;23.35;13.65;;;20.70;88.60;;;;;;5032741;28;20123;-84
2021/09/12 01:45:32;;;;;;;28.80;13.35;;;20.70;88.80;;;;;;5043916;28;20037;-83
2021/09/12 01:48:01;;;;;;;33.47;15.70;;;20.70;88.70;;;;;;5041232;28;20025;-76
2021/09/12 01:50:28;;;;;;;28.85;15.15;;;20.70;89.00;;;;;;5048920;28;20500;-83
2021/09/12 01:52:54;;;;;;;25.67;12.18;;;20.70;89.00;;;;;;5032159;28;20034;-83
2021/09/12 01:55:20;;;;;;;26.17;13.68;;;20.70;88.70;;;;;;5034292;28;20483;-83
2021/09/12 01:57:49;;;;;;;27.80;14.82;;;20.70;88.80;;;;;;5048168;28;20068;-83
2021/09/12 02:00:15;;;;;;;24.73;10.65;;;20.70;89.00;;;;;;5041435;28;20048;-83
2021/09/12 02:02:40;;;;;;;31.27;15.52;;;20.70;88.70;;;;;;5045130;28;20472;-84
2021/09/12 02:05:07;;;;;;;28.30;13.30;;;20.70;89.00;;;;;;5042888;28;20029;-84
2021/09/12 02:07:33;;;;;;;27.73;13.18;;;20.60;88.90;;;;;;5050051;28;20078;-83
2021/09/12 02:09:58;;;;;;;26.85;13.55;;;20.70;88.90;;;;;;5050200;28;20025;-84
2021/09/12 02:12:24;;;;;;;27.60;11.23;;;20.60;89.00;;;;;;5046218;28;20374;-84
2021/09/12 02:14:50;;;;;;;18.40;9.60;;;20.60;89.00;;;;;;5038640;28;20090;-84
2021/09/12 02:17:16;;;;;;;14.35;6.90;;;20.60;89.20;;;;;;5043755;28;20022;-83
2021/09/12 02:19:42;;;;;;;20.73;10.07;;;20.60;89.20;;;;;;5044591;28;20033;-85
2021/09/12 02:22:08;;;;;;;23.90;9.00;;;20.50;89.50;;;;;;5041108;28;20039;-85
2021/09/12 02:24:34;;;;;;;18.67;8.07;;;20.50;89.60;;;;;;5044464;28;20483;-84
2021/09/12 02:27:00;;;;;;;26.92;10.10;;;20.50;89.70;;;;;;5032200;28;20032;-85
2021/09/12 02:29:25;;;;;;;22.00;7.28;;;20.50;89.80;;;;;;5032831;28;20017;-84
2021/09/12 02:31:51;;;;;;;27.42;9.02;;;20.40;89.70;;;;;;5036359;28;20392;-84
2021/09/12 02:34:17;;;;;;;21.63;8.45;;;20.50;89.90;;;;;;5048870;28;20037;-83
2021/09/12 02:36:42;;;;;;;19.42;9.32;;;20.50;89.80;;;;;;5035649;28;20037;-83
2021/09/12 02:39:08;;;;;;;16.42;7.88;;;20.40;89.80;;;;;;5032094;28;20029;-83
2021/09/12 02:41:34;;;;;;;16.50;7.25;;;20.50;89.80;;;;;;5033163;28;20033;-82
2021/09/12 02:44:00;;;;;;;19.63;6.20;;;20.50;89.60;;;;;;5036650;28;20032;-83
2021/09/12 02:46:25;;;;;;;22.10;8.07;;;20.40;89.50;;;;;;5036738;28;20072;-83
2021/09/12 02:48:51;;;;;;;14.27;5.38;;;20.50;89.90;;;;;;5038977;28;20059;-82
2021/09/12 02:51:17;;;;;;;19.98;6.60;;;20.40;89.70;;;;;;5045674;28;20071;-83
2021/09/12 02:53:42;;;;;;;15.57;6.80;;;20.40;89.80;;;;;;5038046;28;20057;-83
2021/09/12 02:56:08;;;;;;;21.02;7.55;;;20.50;89.90;;;;;;5049372;28;20053;-83
2021/09/12 02:58:33;;;;;;;19.52;6.93;;;20.40;89.80;;;;;;5037623;28;20029;-83
2021/09/12 03:00:59;;;;;;;23.02;6.75;;;20.40;89.70;;;;;;5039510;28;20021;-83
2021/09/12 03:03:24;;;;;;;18.33;7.82;;;20.40;89.60;;;;;;5037224;28;20021;-83
2021/09/12 03:05:50;;;;;;;20.38;8.35;;;20.40;89.70;;;;;;5038880;28;20084;-84
2021/09/12 03:08:16;;;;;;;21.33;6.88;;;20.40;89.70;;;;;;5048193;28;20029;-83
2021/09/12 03:10:41;;;;;;;19.38;8.18;;;20.40;89.50;;;;;;5046049;28;20464;-83
2021/09/12 03:13:07;;;;;;;14.95;6.97;;;20.40;89.50;;;;;;5038695;28;20542;-84
2021/09/12 03:15:33;;;;;;;15.27;6.72;;;20.40;89.50;;;;;;5046348;28;20432;-84
2021/09/12 03:17:58;;;;;;;22.67;8.75;;;20.40;89.50;;;;;;5035235;28;20033;-82
2021/09/12 03:20:24;;;;;;;20.63;6.28;;;20.30;89.70;;;;;;5043264;28;20026;-83
2021/09/12 03:22:49;;;;;;;11.80;5.28;;;20.30;89.60;;;;;;5047721;28;20040;-83
2021/09/12 03:25:15;;;;;;;19.75;7.10;;;20.30;89.60;;;;;;5045471;28;20035;-83
2021/09/12 03:27:41;;;;;;;22.38;8.25;;;20.30;89.80;;;;;;5034724;28;20473;-83
2021/09/12 03:30:07;;;;;;;21.88;9.05;;;20.30;89.90;;;;;;5039113;28;20574;-83
2021/09/12 03:32:33;;;;;;;20.27;7.53;;;20.30;89.90;;;;;;5052920;28;20037;-81
2021/09/12 03:34:58;;;;;;;20.10;8.07;;;20.20;89.80;;;;;;5050301;28;20384;-83
2021/09/12 03:37:24;;;;;;;21.45;6.95;;;20.30;89.80;;;;;;5047805;28;20033;-83
2021/09/12 03:39:50;;;;;;;25.08;7.30;;;20.30;89.70;;;;;;5035673;28;20091;-83
2021/09/12 03:42:15;;;;;;;20.50;7.22;;;20.30;89.60;;;;;;5039103;28;20021;-83
2021/09/12 03:44:41;;;;;;;11.80;5.38;;;20.20;89.50;;;;;;5043410;28;20034;-83
2021/09/12 03:47:07;;;;;;;18.30;7.80;;;20.20;89.30;;;;;;5035839;28;20473;-83
2021/09/12 03:49:32;;;;;;;14.40;6.95;;;20.20;89.50;;;;;;5045401;28;20042;-82
2021/09/12 03:51:58;;;;;;;17.10;7.97;;;20.20;89.40;;;;;;5034183;28;20469;-83
2021/09/12 03:54:24;;;;;;;31.02;8.55;;;20.20;89.40;;;;;;5034330;28;20055;-83
2021/09/12 03:56:49;;;;;;;18.83;7.22;;;20.20;89.40;;;;;;5035862;28;20083;-83
2021/09/12 03:59:15;;;;;;;22.30;7.57;;;20.20;89.20;;;;;;5035916;28;20032;-84
2021/09/12 04:01:40;;;;;;;21.92;7.30;;;20.20;89.20;;;;;;5045346;28;20017;-84
2021/09/12 04:04:06;;;;;;;16.58;6.97;;;20.20;89.30;;;;;;5038606;28;20048;-84
2021/09/12 04:06:32;;;;;;;14.20;5.82;;;20.10;89.30;;;;;;5036417;28;20149;-83
2021/09/12 04:08:57;;;;;;;16.10;4.93;;;20.20;89.30;;;;;;5036869;28;20029;-84
2021/09/12 04:11:23;;;;;;;19.08;7.57;;;20.10;89.30;;;;;;5050882;28;20545;-83
2021/09/12 04:13:49;;;;;;;16.55;6.28;;;20.10;89.40;;;;;;5041724;28;20123;-83
2021/09/12 04:16:15;;;;;;;23.48;7.22;;;20.10;89.50;;;;;;5042415;28;20026;-82
2021/09/12 04:18:41;;;;;;;18.25;7.47;;;20.10;89.50;;;;;;5048377;28;20381;-83
2021/09/12 04:21:06;;;;;;;17.98;6.93;;;20.10;89.60;;;;;;5039187;28;20038;-83
2021/09/12 04:23:35;;;;;;;24.50;6.10;;;20.00;89.50;;;;;;5036611;28;20044;-83
2021/09/12 04:26:01;;;;;;;16.80;6.18;;;20.00;89.60;;;;;;5040728;28;20030;-83
2021/09/12 04:28:27;;;;;;;16.20;7.50;;;20.00;89.60;;;;;;5049283;28;20025;-83
2021/09/12 04:30:52;;;;;;;19.50;7.53;;;19.90;89.70;;;;;;5044962;28;20452;-83
2021/09/12 04:33:18;;;;;;;21.30;6.78;;;20.00;89.60;;;;;;5039781;28;20037;-83
2021/09/12 04:35:43;;;;;;;19.38;6.72;;;20.00;89.60;;;;;;5040240;28;20021;-83
2021/09/12 04:38:09;;;;;;;15.07;7.13;;;20.00;89.50;;;;;;5042262;28;20053;-82
2021/09/12 04:40:35;;;;;;;11.50;5.55;;;20.00;89.40;;;;;;5045824;28;20414;-84
2021/09/12 04:43:01;;;;;;;13.80;6.60;;;20.00;89.20;;;;;;5034204;28;20366;-83
2021/09/12 04:45:29;;;;;;;26.17;7.95;;;20.00;89.30;;;;;;5032618;28;20026;-83
2021/09/12 04:47:55;;;;;;;15.50;4.07;;;20.00;89.40;;;;;;5032996;28;20116;-83
2021/09/12 04:50:20;;;;;;;15.43;5.75;;;20.00;89.10;;;;;;5035240;28;20570;-83
2021/09/12 04:52:48;;;;;;;18.95;6.75;;;19.90;89.20;;;;;;5039037;28;20025;-83
2021/09/12 04:55:14;;;;;;;22.17;7.03;;;20.00;89.40;;;;;;5038237;28;20113;-83
2021/09/12 04:57:40;;;;;;;18.17;7.57;;;19.90;89.40;;;;;;5034319;28;20024;-83
2021/09/12 05:00:07;;;;;;;15.75;6.60;;;19.90;89.40;;;;;;5033961;28;20056;-84
2021/09/12 05:02:32;;;;;;;20.10;7.30;;;19.90;89.20;;;;;;5034611;28;20034;-83
2021/09/12 05:04:58;;;;;;;15.88;5.95;;;19.90;89.20;;;;;;5036051;28;20033;-84
2021/09/12 05:07:23;;;;;;;13.80;6.47;;;19.90;89.10;;;;;;5038949;28;20021;-84
2021/09/12 05:09:49;;;;;;;16.42;6.68;;;19.90;89.10;;;;;;5038161;28;20473;-84
2021/09/12 05:12:15;;;;;;;15.43;7.35;;;19.90;89.20;;;;;;5045551;28;20025;-83
2021/09/12 05:14:43;;;;;;;18.48;6.05;;;19.90;89.30;;;;;;5048388;28;20040;-83
2021/09/12 05:17:09;;;;;;;13.38;4.28;;;19.90;89.20;;;;;;5033833;28;20067;-84
2021/09/12 05:19:35;;;;;;;16.05;4.75;;;19.80;89.60;;;;;;5046310;28;20444;-83
2021/09/12 05:22:00;;;;;;;10.30;4.57;;;19.90;89.10;;;;;;5044454;28;20022;-84
2021/09/12 05:24:26;;;;;;;15.52;6.10;;;19.80;89.00;;;;;;5043510;28;20256;-83
2021/09/12 05:26:51;;;;;;;12.90;6.30;;;19.80;89.20;;;;;;5034444;28;20029;-84
2021/09/12 05:29:18;;;;;;;19.25;5.82;;;19.80;89.30;;;;;;5032768;28;20044;-83
2021/09/12 05:31:44;;;;;;;25.23;7.20;;;19.80;89.30;;;;;;5045478;28;20406;-83
2021/09/12 05:34:09;;;;;;;17.02;7.35;;;19.80;89.30;;;;;;5033508;28;20397;-83
2021/09/12 05:36:35;;;;;;;18.58;7.43;;;19.70;89.30;;;;;;5033294;28;20017;-83
2021/09/12 05:39:01;;;;;;;22.00;5.55;;;19.80;89.40;;;;;;5037959;28;20151;-83
2021/09/12 05:41:26;;;;;;;14.25;5.43;;;19.80;89.20;;;;;;5051250;28;20021;-82
2021/09/12 05:43:52;;;;;;;13.90;5.38;;;19.70;89.90;;;;;;5033859;28;20623;-83
2021/09/12 05:46:18;;;;;;;16.70;4.63;;;19.70;89.10;;;;;;5033827;28;20030;-82
2021/09/12 05:48:43;;;;;;;17.63;6.15;;;19.70;89.20;;;;;;5033375;28;20049;-82
2021/09/12 05:51:09;;;;;;;12.15;4.68;;;19.70;89.30;;;;;;5045356;28;20464;-82
2021/09/12 05:53:34;;;;;;;11.32;5.15;;;19.70;89.10;;;;;;5042553;28;20045;-82
2021/09/12 05:56:00;;;;;;;10.52;4.30;;;19.70;89.20;;;;;;5048941;28;20040;-83
2021/09/12 05:58:26;;;;;;;11.50;5.75;;;19.70;89.30;;;;;;5038808;28;20044;-83
2021/09/12 06:00:52;;;;;;;11.73;4.22;;;19.70;89.60;;;;;;5038597;28;20026;-83
2021/09/12 06:03:17;;;;;;;14.70;4.50;;;19.70;89.60;;;;;;5033477;28;20033;-82
2021/09/12 06:05:43;;;;;;;16.33;4.93;;;19.70;89.80;;;;;;5034480;28;20034;-82
2021/09/12 06:08:08;;;;;;;9.45;4.13;;;19.70;89.80;;;;;;5045470;28;20041;-83
2021/09/12 06:10:34;;;;;;;13.85;5.00;;;19.60;89.70;;;;;;5035576;28;20030;-84
2021/09/12 06:13:00;;;;;;;21.20;5.40;;;19.60;89.80;;;;;;5036751;28;20025;-83
2021/09/12 06:15:25;;;;;;;10.45;4.82;;;19.70;90.00;;;;;;5033708;28;20087;-83
2021/09/12 06:17:51;;;;;;;6.80;3.80;;;19.70;90.00;;;;;;5038656;28;20030;-82
2021/09/12 06:20:17;;;;;;;16.48;5.53;;;19.60;90.00;;;;;;5040102;28;20040;-83
2021/09/12 06:22:47;;;;;;;13.95;5.55;;;19.70;90.10;;;;;;5048848;28;20491;-82
2021/09/12 06:25:13;;;;;;;14.15;5.28;;;19.60;90.10;;;;;;5046411;28;20033;-82
2021/09/12 06:27:39;;;;;;;18.13;5.22;;;19.70;90.20;;;;;;5037172;28;20052;-83
2021/09/12 06:30:07;;;;;;;10.68;2.40;;;19.70;90.10;;;;;;5036306;28;20034;-84
2021/09/12 06:32:32;;;;;;;18.52;5.13;;;19.60;90.00;;;;;;5044151;28;20047;-82
2021/09/12 06:34:58;;;;;;;21.63;5.50;;;19.70;90.20;;;;;;5046809;28;20021;-83
2021/09/12 06:37:24;;;;;;;19.10;5.40;;;19.60;90.20;;;;;;5049690;28;20468;-78
2021/09/12 06:39:49;;;;;;;12.70;4.55;;;19.70;90.20;;;;;;5043122;28;20029;-78
2021/09/12 06:42:15;;;;;;;17.80;5.53;;;19.70;90.20;;;;;;5041140;28;20029;-83
2021/09/12 06:44:41;;;;;;;12.95;3.72;;;19.70;90.30;;;;;;5042636;28;20349;-82
2021/09/12 06:47:06;;;;;;;8.15;3.22;;;19.60;90.20;;;;;;5040553;28;20040;-82
2021/09/12 06:49:32;;;;;;;13.88;4.65;;;19.70;90.30;;;;;;5042071;28;20095;-85
2021/09/12 06:51:58;;;;;;;10.55;4.10;;;19.60;90.20;;;;;;5045250;28;20800;-83
2021/09/12 06:54:23;;;;;;;13.70;3.70;;;19.70;90.30;;;;;;5040983;28;20033;-84
2021/09/12 06:56:49;;;;;;;13.48;4.55;;;19.70;90.40;;;;;;5040642;28;20393;-83
2021/09/12 06:59:14;;;;;;;17.92;5.93;;;19.70;90.40;;;;;;5040294;28;20041;-82
2021/09/12 07:01:40;;;;;;;12.00;4.05;;;19.70;90.50;;;;;;5046242;28;20063;-83
2021/09/12 07:04:06;;;;;;;12.20;4.57;;;19.70;90.50;;;;;;5045594;28;20028;-79
2021/09/12 07:06:31;;;;;;;16.48;5.63;;;19.80;90.50;;;;;;5048695;28;20026;-77
2021/09/12 07:08:58;;;;;;;10.27;3.33;;;19.80;90.60;;;;;;5038007;28;20033;-77
2021/09/12 07:11:24;;;;;;;16.75;5.90;;;19.80;90.60;;;;;;5038255;28;20063;-78
2021/09/12 07:13:49;;;;;;;23.33;5.35;;;19.80;90.70;;;;;;5035471;28;20033;-78
2021/09/12 07:16:15;;;;;;;7.53;3.42;;;19.80;90.70;;;;;;5043672;28;20772;-77
2021/09/12 07:18:40;;;;;;;14.80;5.35;;;19.80;90.60;;;;;;5042953;28;20033;-88
2021/09/12 07:21:06;;;;;;;11.18;4.22;;;19.80;90.80;;;;;;5040487;28;20575;-90
2021/09/12 07:23:32;;;;;;;15.95;4.18;;;19.80;90.80;;;;;;5035823;28;20029;-75
2021/09/12 07:25:57;;;;;;;13.55;5.07;;;19.90;90.90;;;;;;5038416;28;20029;-76
2021/09/12 07:28:23;;;;;;;14.27;5.63;;;19.80;90.90;;;;;;5038376;28;20113;-76
2021/09/12 07:30:49;;;;;;;22.67;4.82;;;19.80;91.00;;;;;;5039576;28;20430;-78
2021/09/12 07:33:14;;;;;;;13.10;4.13;;;19.90;91.30;;;;;;5037814;28;20044;-78
2021/09/12 07:35:40;;;;;;;9.45;2.90;;;19.90;91.20;;;;;;5037248;28;20026;-78
2021/09/12 07:38:06;;;;;;;3.67;2.25;;;19.90;91.20;;;;;;5041696;28;20044;-77
2021/09/12 07:40:31;;;;;;;24.50;5.88;;;20.00;91.40;;;;;;5043544;28;20115;-78
2021/09/12 07:42:57;;;;;;;16.20;6.43;;;20.00;91.50;;;;;;5047542;28;20021;-78
2021/09/12 07:45:23;;;;;;;10.43;2.78;;;20.00;91.50;;;;;;5046901;28;20508;-77
2021/09/12 07:47:48;;;;;;;10.52;2.95;;;20.00;91.40;;;;;;5048294;28;20029;-78
2021/09/12 07:50:14;;;;;;;4.60;2.35;;;20.00;91.30;;;;;;5043488;28;20041;-78
2021/09/12 07:52:43;;;;;;;13.60;4.13;;;20.00;91.40;;;;;;5046846;28;20044;-78
2021/09/12 07:55:10;;;;;;;17.58;6.78;;;20.00;91.50;;;;;;5045546;28;20043;-78
2021/09/12 07:57:36;;;;;;;6.20;3.50;;;20.10;91.70;;;;;;5042100;28;20018;-77
2021/09/12 08:00:04;;;;;;;20.50;6.53;;;20.10;91.50;;;;;;5040196;28;20032;-77
2021/09/12 08:02:37;;;;;;;14.40;5.60;;;20.10;91.60;;;;;;5042199;28;20037;-77
2021/09/12 08:05:04;;;;;;;18.50;6.70;;;20.10;91.50;;;;;;5038926;28;20029;-77
2021/09/12 08:07:30;;;;;;;14.82;5.13;;;20.10;91.60;;;;;;5050169;28;20484;-77
2021/09/12 08:09:56;;;;;;;20.02;7.57;;;20.10;91.50;;;;;;5047139;28;20116;-77
2021/09/12 08:12:21;;;;;;;12.65;5.40;;;20.10;91.60;;;;;;5049437;28;20071;-78
2021/09/12 08:14:47;;;;;;;15.93;6.22;;;20.20;91.50;;;;;;5045243;28;20121;-77
2021/09/12 08:17:13;;;;;;;15.18;4.78;;;20.20;91.50;;;;;;5043046;28;20033;-77
2021/09/12 08:19:38;;;;;;;18.92;4.40;;;20.20;91.50;;;;;;5047512;28;20060;-77
2021/09/12 08:22:04;;;;;;;17.52;6.00;;;20.20;91.60;;;;;;5035306;28;20029;-77
2021/09/12 08:24:30;;;;;;;10.60;2.95;;;20.20;91.70;;;;;;5049690;28;20435;-80
2021/09/12 08:26:56;;;;;;;7.88;3.58;;;20.20;91.70;;;;;;5034337;28;20043;-81
2021/09/12 08:29:22;;;;;;;14.25;5.93;;;20.20;91.70;;;;;;5034009;28;20035;-79
2021/09/12 08:31:47;;;;;;;7.10;3.45;;;20.20;91.80;;;;;;5034141;28;20060;-79
2021/09/12 08:34:13;;;;;;;7.70;4.00;;;20.30;91.80;;;;;;5035891;28;20584;-85
2021/09/12 08:36:39;;;;;;;18.05;5.07;;;20.20;91.90;;;;;;5039945;28;20396;-87
2021/09/12 08:39:05;;;;;;;9.98;4.75;;;20.30;92.00;;;;;;5040195;28;20037;-85
2021/09/12 08:41:32;;;;;;;11.75;4.75;;;20.30;91.90;;;;;;5033958;28;20504;-81
2021/09/12 08:43:59;;;;;;;12.68;5.32;;;20.30;92.00;;;;;;5033717;28;20029;-81
2021/09/12 08:46:24;;;;;;;7.80;3.95;;;20.30;92.00;;;;;;5037809;28;20026;-84
2021/09/12 08:48:51;;;;;;;10.98;4.30;;;20.30;91.80;;;;;;5035417;28;20136;-82
2021/09/12 08:51:17;;;;;;;6.10;3.38;;;20.30;91.80;;;;;;5038980;28;20038;-79
2021/09/12 08:53:42;;;;;;;8.35;3.03;;;20.40;91.80;;;;;;5038640;28;20094;-80
2021/09/12 08:56:09;;;;;;;5.07;3.10;;;20.40;91.70;;;;;;5041830;28;20098;-76
2021/09/12 08:58:37;;;;;;;6.15;3.05;;;20.40;91.80;;;;;;5041620;28;20116;-83
2021/09/12 09:01:03;;;;;;;8.98;3.15;;;20.40;91.70;;;;;;5037331;28;20389;-81
2021/09/12 09:03:36;;;;;;;15.00;3.25;;;20.40;91.70;;;;;;5032605;28;20033;-77
2021/09/12 09:06:17;;;;;;;14.02;3.65;;;20.40;91.70;;;;;;5036104;28;20064;-77
2021/09/12 09:08:50;;;;;;;9.95;3.88;;;20.40;91.60;;;;;;5032901;28;20131;-78
2021/09/12 09:11:32;;;;;;;8.88;3.45;;;20.50;91.60;;;;;;5033648;28;20030;-79
2021/09/12 09:14:19;;;;;;;6.47;2.93;;;20.50;91.60;;;;;;5037574;28;20049;-78
2021/09/12 09:16:49;;;;;;;8.90;3.88;;;20.50;91.60;;;;;;5036677;28;20074;-80
2021/09/12 09:19:15;;;;;;;9.55;4.93;;;20.60;91.70;;;;;;5032230;28;20492;-81
2021/09/12 09:21:47;;;;;;;9.60;3.60;;;20.60;91.70;;;;;;5031172;28;20045;-77
2021/09/12 09:24:29;;;;;;;19.67;4.93;;;20.70;91.70;;;;;;5037973;28;20032;-81
2021/09/12 09:27:03;;;;;;;11.23;4.72;;;20.70;91.70;;;;;;5035478;28;20033;-87
2021/09/12 09:29:31;;;;;;;7.32;3.58;;;20.70;91.70;;;;;;5044744;28;20500;-82
2021/09/12 09:32:08;;;;;;;8.07;4.18;;;20.70;91.60;;;;;;5037528;28;20212;-91
2021/09/12 09:34:37;;;;;;;16.63;4.22;;;20.80;91.60;;;;;;5040572;28;20072;-89
2021/09/12 09:37:10;;;;;;;10.45;3.65;;;20.80;91.50;;;;;;5043899;28;20021;-91
2021/09/12 09:39:41;;;;;;;17.08;4.10;;;20.80;91.60;;;;;;5039122;28;20030;-86
2021/09/12 09:42:27;;;;;;;12.10;4.47;;;20.80;91.50;;;;;;5034998;28;20088;-87
2021/09/12 09:45:02;;;;;;;5.50;3.50;;;20.90;91.50;;;;;;5037563;28;20036;-90
2021/09/12 09:47:28;;;;;;;10.57;3.90;;;20.90;91.40;;;;;;5043423;28;20091;-89
2021/09/12 09:50:02;;;;;;;11.18;4.75;;;21.00;91.50;;;;;;5046973;28;20128;-90
2021/09/12 09:52:29;;;;;;;5.53;2.63;;;21.00;91.40;;;;;;5040318;28;20480;-76
2021/09/12 09:54:56;;;;;;;6.03;2.67;;;21.00;91.40;;;;;;5039661;28;20041;-88
2021/09/12 09:57:22;;;;;;;10.38;3.55;;;21.10;91.50;;;;;;5047910;28;20033;-90
2021/09/12 09:59:47;;;;;;;6.88;2.28;;;21.20;91.40;;;;;;5050134;28;20121;-88
2021/09/12 10:02:15;;;;;;;1.67;1.33;;;21.20;91.30;;;;;;5042577;28;20079;-91
2021/09/12 10:04:42;;;;;;;8.40;3.50;;;21.20;91.20;;;;;;5044416;28;20067;-85
2021/09/12 10:07:09;;;;;;;6.75;3.78;;;21.20;91.20;;;;;;5033346;28;20053;-86
2021/09/12 10:09:36;;;;;;;26.20;2.70;;;21.20;91.20;;;;;;5034013;28;20048;-88
2021/09/12 10:12:08;;;;;;;8.35;4.25;;;21.30;91.20;;;;;;5049423;28;20029;-90
2021/09/12 10:14:48;;;;;;;5.38;2.80;;;21.30;91.00;;;;;;5040990;28;20042;-88
2021/09/12 10:17:14;;;;;;;6.43;3.70;;;21.30;91.10;;;;;;5039527;28;20032;-87
2021/09/12 10:19:43;;;;;;;6.75;2.40;;;21.30;90.80;;;;;;5044204;28;20122;-91
2021/09/12 10:22:11;;;;;;;4.72;1.80;;;21.30;90.70;;;;;;5036784;28;20036;-88
2021/09/12 10:25:06;;;;;;;4.60;1.85;;;21.40;90.20;;;;;;5035237;28;20037;-87
2021/09/12 10:28:07;;;;;;;2.60;1.40;;;21.50;90.10;;;;;;5043150;28;20036;-88
2021/09/12 10:30:38;;;;;;;2.63;1.10;;;21.50;90.00;;;;;;5051308;28;20171;-87
2021/09/12 10:33:06;;;;;;;3.20;1.17;;;21.60;89.80;;;;;;5035231;28;20052;-86
2021/09/12 10:35:51;;;;;;;1.20;1.05;;;21.60;89.20;;;;;;5042452;28;20071;-86
2021/09/12 10:38:44;;;;;;;5.35;0.98;;;21.60;89.10;;;;;;5034690;28;20037;-85
2021/09/12 10:41:11;;;;;;;2.80;0.93;;;21.70;89.40;;;;;;5033912;28;20041;-89
2021/09/12 10:43:37;;;;;;;7.03;1.10;;;21.60;89.00;;;;;;5031734;28;20565;-87
2021/09/12 10:46:05;;;;;;;1.27;0.88;;;21.60;88.50;;;;;;5036922;28;20127;-85
2021/09/12 10:49:05;;;;;;;3.15;1.10;;;21.70;88.30;;;;;;5036684;28;20050;-84
2021/09/12 10:51:32;;;;;;;3.30;1.05;;;21.70;88.10;;;;;;5037716;28;20057;-84
2021/09/12 10:54:01;;;;;;;2.22;1.10;;;21.70;87.40;;;;;;5032748;28;20516;-80
2021/09/12 10:56:32;;;;;;;4.70;1.20;;;21.80;87.20;;;;;;5032466;28;20033;-76
2021/09/12 10:58:59;;;;;;;1.55;1.08;;;21.80;85.90;;;;;;5032397;28;20034;-81
2021/09/12 11:01:38;;;;;;;3.67;1.20;;;21.90;85.40;;;;;;5036660;28;20024;-83
2021/09/12 11:04:05;;;;;;;2.50;1.08;;;21.90;87.20;;;;;;5042459;28;20393;-78
2021/09/12 11:06:34;;;;;;;1.95;0.80;;;21.90;86.90;;;;;;5045921;28;20025;-83
2021/09/12 11:09:03;;;;;;;2.50;0.90;;;22.00;86.30;;;;;;5042347;28;20040;-81
2021/09/12 11:11:29;;;;;;;3.45;1.20;;;22.00;86.00;;;;;;5038104;28;20033;-86
2021/09/12 11:13:56;;;;;;;5.20;1.40;;;22.00;86.00;;;;;;5044180;28;20028;-89
2021/09/12 11:16:24;;;;;;;5.82;1.73;;;22.00;85.90;;;;;;5041302;28;20033;-86
2021/09/12 11:18:54;;;;;;;2.22;1.17;;;22.10;85.90;;;;;;5041382;28;20033;-87
2021/09/12 11:21:32;;;;;;;5.18;1.65;;;22.10;85.40;;;;;;5035481;28;20061;-85
2021/09/12 11:24:24;;;;;;;5.75;1.02;;;22.10;85.20;;;;;;5042140;28;20082;-88
2021/09/12 11:26:51;;;;;;;1.95;0.70;;;22.20;85.10;;;;;;5047242;28;20040;-89
2021/09/12 11:29:28;;;;;;;2.65;1.08;;;22.20;84.50;;;;;;5044425;28;20191;-88
2021/09/12 11:32:02;;;;;;;3.47;0.90;;;22.20;84.60;;;;;;5039698;28;20030;-90
2021/09/12 11:34:29;;;;;;;5.65;1.63;;;22.30;84.30;;;;;;5038539;28;20559;-86
2021/09/12 11:37:00;;;;;;;6.20;1.27;;;22.30;84.40;;;;;;5032333;28;20036;-84
2021/09/12 11:39:29;;;;;;;9.55;1.30;;;22.30;83.70;;;;;;5039005;28;20029;-87
2021/09/12 11:41:57;;;;;;;2.15;0.93;;;22.30;84.10;;;;;;5035008;28;20029;-85
2021/09/12 11:44:47;;;;;;;2.58;0.82;;;22.30;84.30;;;;;;5033053;28;20388;-84
2021/09/12 11:47:15;;;;;;;8.45;1.30;;;22.30;83.60;;;;;;5034326;28;20493;-85
2021/09/12 11:49:42;;;;;;;3.65;0.90;;;22.30;83.60;;;;;;5042568;28;20040;-84
2021/09/12 11:52:09;;;;;;;4.00;1.38;;;22.30;83.90;;;;;;5036297;28;20031;-82
2021/09/12 11:54:37;;;;;;;13.75;1.52;;;22.30;83.90;;;;;;5032964;28;20044;-80
2021/09/12 11:57:16;;;;;;;6.95;1.50;;;22.40;84.00;;;;;;5037240;28;20039;-82
2021/09/12 11:59:46;;;;;;;2.85;0.98;;;22.40;83.90;;;;;;5035810;28;20056;-81
2021/09/12 12:02:22;;;;;;;3.38;1.25;;;22.40;83.50;;;;;;5033926;28;20057;-83
2021/09/12 12:04:49;;;;;;;4.18;1.20;;;22.40;82.90;;;;;;5033242;28;20072;-82
2021/09/12 12:07:15;;;;;;;3.33;0.73;;;22.50;83.40;;;;;;5035444;28;20547;-77
2021/09/12 12:09:44;;;;;;;5.15;1.25;;;22.50;82.60;;;;;;5035803;28;20025;-83
2021/09/12 12:12:18;;;;;;;4.13;1.23;;;22.50;82.30;;;;;;5036122;28;20495;-85
2021/09/12 12:14:51;;;;;;;6.15;1.40;;;22.50;82.00;;;;;;5037696;28;20041;-88
2021/09/12 12:17:19;;;;;;;2.78;1.10;;;22.60;82.00;;;;;;5033246;28;20090;-84
2021/09/12 12:19:46;;;;;;;2.97;1.23;;;22.60;82.30;;;;;;5034020;28;20057;-83
2021/09/12 12:22:12;;;;;;;5.63;1.20;;;22.60;81.40;;;;;;5034982;28;20071;-85
2021/09/12 12:24:43;;;;;;;4.00;1.30;;;22.60;82.10;;;;;;5032936;28;20042;-85
2021/09/12 12:27:17;;;;;;;3.92;1.10;;;22.60;81.80;;;;;;5035811;28;20052;-85
2021/09/12 12:29:43;;;;;;;;;;;22.60;81.60;;;;;;5036772;28;20029;-84
2021/09/12 12:32:11;;;;;;;4.45;2.05;;;22.60;83.30;;;;;;5032747;28;19963;-88
2021/09/12 12:35:04;;;;;;;1.88;0.63;;;22.70;82.40;;;;;;5032237;28;20449;-85
2021/09/12 12:37:32;;;;;;;3.85;1.30;;;22.60;83.70;;;;;;5032996;28;20075;-86
2021/09/12 12:40:04;;;;;;;6.13;1.40;;;22.60;82.40;;;;;;5035571;28;20033;-84